Time;durP1;ratioP1;P1;durP2;ratioP2;P2;SDS_P1;SDS_P2;PMS_P1;PMS_P2;Temp;Humidity;BMP_temperature;BMP_pressure;BME280_temperature;BME280_humidity;BME280_pressure;Samples;Min_cycle;Max_cycle;Signal;HPM_P1;HPM_P2
2022/08/28 00:02:24;;;;;;;;;6.50;6.00;;;;;22.76;41.48;101046.72;5097607;27;45328;-54
2022/08/28 00:04:50;;;;;;;;;6.75;6.75;;;;;22.66;41.74;101041.19;5097551;27;45266;-55
2022/08/28 00:07:15;;;;;;;;;9.20;8.20;;;;;22.72;41.50;101045.63;5096858;27;46901;-52
2022/08/28 00:09:41;;;;;;;;;9.00;7.75;;;;;22.45;42.06;101042.09;5097278;27;45318;-53
2022/08/28 00:12:06;;;;;;;;;9.50;6.50;;;;;22.55;42.29;101040.38;5097188;27;45351;-55
2022/08/28 00:14:32;;;;;;;;;7.25;7.25;;;;;22.42;42.33;101039.03;5079150;27;46023;-55
2022/08/28 00:16:58;;;;;;;;;8.00;8.00;;;;;22.25;42.40;101025.38;5097379;27;45806;-51
2022/08/28 00:19:23;;;;;;;;;10.00;8.75;;;;;22.37;42.50;101022.25;5095640;27;45417;-54
2022/08/28 00:21:49;;;;;;;;;9.00;8.25;;;;;22.49;42.10;101042.34;5079096;27;45396;-51
2022/08/28 00:24:14;;;;;;;;;10.00;8.25;;;;;22.45;42.42;101030.06;5078351;27;45376;-52
2022/08/28 00:29:23;;;;;;;;;7.00;7.00;;;;;22.38;42.56;101044.34;5096742;27;45421;-52
2022/08/28 00:31:49;;;;;;;;;6.75;5.50;;;;;22.26;42.82;101027.06;5097010;27;45374;-53
2022/08/28 00:34:15;;;;;;;;;7.25;6.25;;;;;22.13;43.05;101011.69;5078451;27;45423;-51
2022/08/28 00:36:40;;;;;;;;;8.50;8.00;;;;;21.98;42.69;100999.44;5096730;27;46744;-53
2022/08/28 00:39:06;;;;;;;;;5.75;5.75;;;;;22.26;43.05;101044.69;5096669;27;45654;-55
2022/08/28 00:41:31;;;;;;;;;6.00;6.00;;;;;22.27;42.92;101051.09;5036331;27;46213;-51
2022/08/28 00:44:19;;;;;;;;;6.50;6.50;;;;;22.32;42.93;101053.88;5090983;27;45931;-53
2022/08/28 00:46:45;;;;;;;;;6.80;6.80;;;;;22.31;42.90;101055.81;5106441;27;46074;-50
2022/08/28 00:49:11;;;;;;;;;7.00;5.40;;;;;22.21;42.97;101042.72;5092456;27;45439;-51
2022/08/28 00:54:21;;;;;;;;;5.00;5.00;;;;;22.19;43.22;101038.50;5091881;27;45400;-52
2022/08/28 00:56:47;;;;;;;;;6.25;5.00;;;;;22.26;43.15;101050.25;5073952;27;45670;-55
2022/08/28 00:59:15;;;;;;;;;6.75;5.75;;;;;22.28;43.29;101047.16;5093211;27;45321;-55
2022/08/28 01:01:40;;;;;;;;;8.00;8.00;;;;;22.18;43.36;101051.69;5094198;27;45971;-52
2022/08/28 01:04:06;;;;;;;;;9.25;9.25;;;;;22.06;43.69;101060.38;5094102;27;45647;-52
2022/08/28 01:06:32;;;;;;;;;6.50;6.50;;;;;22.00;43.91;101050.31;5060299;27;45513;-52
2022/08/28 01:08:58;;;;;;;;;5.00;5.00;;;;;21.95;43.96;101050.31;5091659;27;45455;-52
2022/08/28 01:11:23;;;;;;;;;6.00;6.00;;;;;21.92;44.20;101046.13;5095951;27;45475;-51
2022/08/28 01:13:49;;;;;;;;;7.25;7.25;;;;;22.04;43.89;101045.00;5096390;27;45357;-51
2022/08/28 01:16:15;;;;;;;;;10.20;5.40;;;;;21.83;44.02;101021.84;5116537;27;45727;-49
2022/08/28 01:18:41;;;;;;;;;6.20;5.00;;;;;21.99;44.07;101058.97;5098507;27;45388;-50
2022/08/28 01:21:31;;;;;;;;;5.00;5.00;;;;;22.00;44.23;101057.84;5097725;27;45877;-53
2022/08/28 01:24:08;;;;;;;;;6.20;6.00;;;;;21.82;44.36;101048.94;5071293;27;45632;-53
2022/08/28 01:26:33;;;;;;;;;5.20;5.20;;;;;21.98;44.36;101051.72;5115395;27;46041;-51
2022/08/28 01:28:59;;;;;;;;;5.00;5.00;;;;;21.95;44.17;101047.53;5098629;27;45328;-54
2022/08/28 01:31:25;;;;;;;;;7.25;6.00;;;;;21.96;44.35;101046.41;5116921;27;45339;-55
2022/08/28 01:33:50;;;;;;;;;5.60;5.40;;;;;21.85;44.43;101031.63;5117365;27;45347;-55
2022/08/28 01:36:16;;;;;;;;;5.25;5.25;;;;;21.96;44.44;101038.03;5116850;27;46677;-52
2022/08/28 01:38:43;;;;;;;;;5.50;5.50;;;;;21.80;44.65;101021.28;5098254;27;45318;-53
2022/08/28 01:41:10;;;;;;;;;4.60;4.60;;;;;21.74;44.80;101025.22;5081336;27;45307;-50
2022/08/28 01:43:35;;;;;;;;;4.20;4.20;;;;;21.71;44.75;101011.78;5098607;27;45480;-49
2022/08/28 01:46:03;;;;;;;;;6.00;6.00;;;;;21.67;44.95;101016.25;5094527;27;46574;-51
2022/08/28 01:48:30;;;;;;;;;4.80;4.80;;;;;21.79;45.20;101036.34;5096133;27;45424;-53
2022/08/28 01:50:55;;;;;;;;;4.00;4.00;;;;;21.69;45.33;101030.78;5096066;27;45225;-54
2022/08/28 01:53:22;;;;;;;;;5.00;5.00;;;;;21.64;45.47;101027.97;5096632;27;45256;-53
2022/08/28 01:55:48;;;;;;;;;5.00;5.00;;;;;21.60;45.38;101022.09;5043687;27;47606;-51
2022/08/28 01:58:14;;;;;;;;;5.00;5.00;;;;;21.59;45.51;101019.59;5096251;27;45440;-52
2022/08/28 02:00:39;;;;;;;;;3.40;3.40;;;;;21.34;46.07;101004.53;5095873;27;45934;-52
2022/08/28 02:03:05;;;;;;;;;9.50;7.00;;;;;21.54;45.84;101028.81;5053802;27;45640;-51
2022/08/28 02:05:31;;;;;;;;;6.50;4.50;;;;;21.59;45.93;101030.75;5092238;27;45966;-50
2022/08/28 02:07:57;;;;;;;;;4.60;4.20;;;;;21.59;45.64;101031.59;5076417;27;45475;-53
2022/08/28 02:10:24;;;;;;;;;5.00;4.00;;;;;21.61;46.12;101034.94;5095101;27;45346;-51
2022/08/28 02:12:54;;;;;;;;;6.80;5.20;;;;;21.46;45.87;101010.66;5076751;27;45440;-50
2022/08/28 02:15:19;;;;;;;;;5.60;5.60;;;;;21.38;46.42;101014.00;5093518;27;46863;-50
2022/08/28 02:17:45;;;;;;;;;6.50;5.50;;;;;21.45;46.24;101034.09;5113625;27;45464;-53
2022/08/28 02:20:10;;;;;;;;;5.00;5.00;;;;;21.46;46.15;101026.59;5098921;27;45436;-52
2022/08/28 02:22:36;;;;;;;;;7.25;5.50;;;;;21.46;46.32;101032.16;5099654;27;45582;-50
2022/08/28 02:25:02;;;;;;;;;8.00;5.25;;;;;21.41;46.50;101041.38;5080338;27;46897;-49
2022/08/28 02:27:28;;;;;;;;;6.80;5.80;;;;;21.43;46.50;101025.19;5080417;27;45313;-50
2022/08/28 02:29:54;;;;;;;;;8.00;7.75;;;;;21.30;46.58;101014.56;5098936;27;45320;-49
2022/08/28 02:32:19;;;;;;;;;5.00;5.00;;;;;21.44;46.68;101038.03;5063681;27;45428;-50
2022/08/28 02:34:45;;;;;;;;;6.00;4.75;;;;;21.37;46.70;101035.53;5080059;27;47614;-53
2022/08/28 02:37:12;;;;;;;;;7.75;6.25;;;;;21.30;46.94;101029.38;5098662;27;45329;-49
2022/08/28 02:39:38;;;;;;;;;6.80;6.80;;;;;21.36;46.71;101036.59;5098691;27;45366;-48
2022/08/28 02:42:04;;;;;;;;;6.60;6.00;;;;;21.26;46.99;101033.81;5097848;27;45707;-51
2022/08/28 02:44:29;;;;;;;;;2.25;2.25;;;;;21.20;47.26;101032.13;5080256;27;46516;-50
2022/08/28 02:46:55;;;;;;;;;4.00;4.00;;;;;21.22;47.18;101027.09;5074536;27;45339;-48
2022/08/28 02:49:22;;;;;;;;;5.75;5.75;;;;;21.23;47.24;101032.41;5117948;27;45470;-51
2022/08/28 02:51:48;;;;;;;;;4.60;4.60;;;;;21.19;47.29;101039.66;5101106;27;45322;-52
2022/08/28 02:54:14;;;;;;;;;6.00;6.00;;;;;21.13;47.49;101036.03;5119264;27;45557;-51
2022/08/28 02:56:40;;;;;;;;;5.25;4.00;;;;;21.06;47.73;101029.88;5100395;27;45439;-49
2022/08/28 02:59:05;;;;;;;;;6.75;5.25;;;;;21.10;47.79;101035.75;5100433;27;45392;-49
2022/08/28 03:01:30;;;;;;;;;6.75;5.00;;;;;21.09;47.51;101031.28;5119021;27;45680;-47
2022/08/28 03:03:56;;;;;;;;;5.50;5.00;;;;;21.11;47.83;101032.69;5118984;27;47456;-49
2022/08/28 03:06:22;;;;;;;;;5.80;4.60;;;;;21.04;47.90;101028.47;5118575;27;45351;-51
2022/08/28 03:08:47;;;;;;;;;4.25;4.25;;;;;20.92;48.03;101006.44;5117554;27;45307;-48
2022/08/28 03:11:13;;;;;;;;;5.50;5.50;;;;;20.89;47.92;101004.19;5118885;27;45313;-49
2022/08/28 03:13:38;;;;;;;;;4.25;4.25;;;;;20.99;48.14;101027.34;5118667;27;46667;-49
2022/08/28 03:16:04;;;;;;;;;4.50;4.50;;;;;20.76;48.08;100992.41;5118586;27;45276;-53
2022/08/28 03:18:29;;;;;;;;;6.25;5.50;;;;;20.92;48.46;101014.78;5119001;27;45414;-50
2022/08/28 03:20:55;;;;;;;;;7.25;5.50;;;;;20.83;48.76;101022.81;5083270;27;45449;-49
2022/08/28 03:23:27;;;;;;;;;6.75;5.75;;;;;20.79;48.47;101030.91;5100082;27;48872;-53
2022/08/28 03:26:01;;;;;;;;;4.80;4.80;;;;;20.75;48.81;101026.97;5118357;27;45334;-52
2022/08/28 03:28:29;;;;;;;;;5.00;5.00;;;;;20.67;48.87;101013.56;5117457;27;45338;-52
2022/08/28 03:30:54;;;;;;;;;5.20;5.20;;;;;20.72;48.87;101031.16;5083099;27;45550;-51
2022/08/28 03:33:20;;;;;;;;;6.25;5.00;;;;;20.68;49.03;101030.03;5099892;27;48410;-52
2022/08/28 03:35:46;;;;;;;;;6.00;6.00;;;;;20.71;49.13;101026.69;5099440;27;45391;-49
2022/08/28 03:38:11;;;;;;;;;6.75;6.75;;;;;20.65;48.73;101004.66;5118466;27;45269;-48
2022/08/28 03:40:41;;;;;;;;;8.00;7.75;;;;;20.81;48.75;101030.63;5099965;27;45463;-49
2022/08/28 03:43:10;;;;;;;;;9.40;6.40;;;;;20.79;48.96;101025.34;5099905;27;46710;-50
2022/08/28 03:45:36;;;;;;;;;6.60;6.60;;;;;20.68;49.33;101030.03;5099832;27;45314;-48
2022/08/28 03:48:02;;;;;;;;;5.75;5.75;;;;;20.67;49.31;101028.38;5117990;27;45385;-51
2022/08/28 03:50:28;;;;;;;;;6.00;4.80;;;;;20.51;49.60;101007.09;5099944;27;45402;-48
2022/08/28 03:52:53;;;;;;;;;5.75;5.75;;;;;20.54;49.86;101029.69;5117775;27;46317;-51
2022/08/28 03:55:19;;;;;;;;;5.50;5.50;;;;;20.45;50.38;101022.97;5118102;27;45353;-50
2022/08/28 03:57:44;;;;;;;;;7.25;5.75;;;;;20.28;50.15;100998.09;5117851;27;45277;-49
2022/08/28 04:00:11;;;;;;;;;5.75;5.75;;;;;20.46;50.02;101024.66;5118443;27;45563;-50
2022/08/28 04:02:36;;;;;;;;;5.20;5.20;;;;;20.42;50.00;101029.94;5117582;27;47643;-50
2022/08/28 04:05:04;;;;;;;;;5.75;5.75;;;;;20.26;50.50;100997.50;5117549;27;45403;-49
2022/08/28 04:07:29;;;;;;;;;7.60;7.60;;;;;20.27;50.12;100999.22;5117962;27;45271;-49
2022/08/28 04:09:55;;;;;;;;;5.00;5.00;;;;;20.41;50.26;101032.97;5118078;27;45289;-49
2022/08/28 04:12:20;;;;;;;;;12.50;10.00;;;;;20.42;50.57;101035.50;5117636;27;46679;-53
2022/08/28 04:14:46;;;;;;;;;8.00;5.50;;;;;20.47;50.03;101034.69;5117551;27;45421;-50
2022/08/28 04:17:11;;;;;;;;;6.25;5.50;;;;;20.43;50.41;101028.81;5117984;27;45319;-52
2022/08/28 04:19:37;;;;;;;;;10.25;6.00;;;;;20.36;50.71;101033.81;5117785;27;45356;-48
2022/08/28 04:22:02;;;;;;;;;6.00;6.00;;;;;20.35;50.76;101034.06;5117216;27;46174;-52
2022/08/28 04:24:28;;;;;;;;;6.00;6.00;;;;;20.27;50.79;101027.09;5117177;27;45299;-49
2022/08/28 04:26:53;;;;;;;;;6.00;6.00;;;;;20.17;50.66;101011.97;5117565;27;45447;-52
2022/08/28 04:29:19;;;;;;;;;6.25;6.00;;;;;20.32;50.60;101032.66;5099372;27;45465;-48
2022/08/28 04:31:44;;;;;;;;;8.00;8.00;;;;;20.21;50.91;101034.56;5116978;27;45382;-48
2022/08/28 04:34:10;;;;;;;;;8.00;6.50;;;;;20.26;51.09;101036.53;5117577;27;45288;-51
2022/08/28 04:36:35;;;;;;;;;6.25;6.25;;;;;20.26;50.96;101030.94;5117427;27;45872;-52
2022/08/28 04:39:01;;;;;;;;;6.75;4.00;;;;;20.22;51.14;101032.63;5116461;27;45329;-51
2022/08/28 04:41:27;;;;;;;;;6.50;6.50;;;;;20.26;51.02;101034.59;5116689;27;46940;-49
2022/08/28 04:43:55;;;;;;;;;7.75;6.25;;;;;20.34;50.81;101037.97;5098747;27;45325;-48
2022/08/28 04:46:21;;;;;;;;;4.40;4.40;;;;;20.36;50.77;101044.09;5112585;27;45397;-52
2022/08/28 04:48:46;;;;;;;;;7.00;7.00;;;;;20.38;50.83;101042.72;5096563;27;45482;-49
2022/08/28 04:51:13;;;;;;;;;5.50;5.50;;;;;20.36;50.52;101044.94;5095243;27;46584;-51
2022/08/28 04:53:39;;;;;;;;;6.80;5.00;;;;;20.38;50.87;101053.06;5096478;27;45284;-48
2022/08/28 04:56:10;;;;;;;;;5.40;5.40;;;;;20.38;50.59;101053.88;5096409;27;45147;-51
2022/08/28 04:58:35;;;;;;;;;7.60;7.00;;;;;20.34;50.45;101047.19;5078878;27;45359;-49
2022/08/28 05:01:09;;;;;;;;;5.25;5.25;;;;;20.29;51.22;101053.53;5096160;27;46440;-51
2022/08/28 05:03:35;;;;;;;;;5.60;5.60;;;;;20.28;51.33;101060.22;5077821;27;45392;-50
2022/08/28 05:06:01;;;;;;;;;7.50;7.50;;;;;20.13;50.93;101021.97;5077884;27;45373;-49
2022/08/28 05:08:28;;;;;;;;;7.20;6.20;;;;;20.39;51.04;101061.13;5078221;27;45493;-51
2022/08/28 05:10:54;;;;;;;;;7.80;5.20;;;;;20.38;50.76;101067.81;5096173;27;46911;-51
2022/08/28 05:13:19;;;;;;;;;6.50;6.50;;;;;20.34;50.97;101057.47;5096131;27;45396;-53
2022/08/28 05:15:47;;;;;;;;;5.00;5.00;;;;;20.37;51.32;101062.50;5077679;27;45344;-52
2022/08/28 05:18:14;;;;;;;;;8.60;7.40;;;;;20.15;51.40;101056.00;5096463;27;45321;-51
2022/08/28 05:20:41;;;;;;;;;8.60;7.40;;;;;20.10;51.45;101030.88;5096144;27;46695;-49
2022/08/28 05:23:08;;;;;;;;;6.00;6.00;;;;;20.26;51.85;101073.59;5077287;27;45441;-49
2022/08/28 05:25:35;;;;;;;;;9.60;7.20;;;;;20.18;52.01;101074.94;5078042;27;45382;-49
2022/08/28 05:28:01;;;;;;;;;11.80;9.00;;;;;20.06;52.07;101071.50;5061202;27;45458;-50
2022/08/28 05:30:26;;;;;;;;;8.75;7.00;;;;;19.92;52.21;101049.66;5095716;27;46203;-49
2022/08/28 05:32:52;;;;;;;;;5.50;5.50;;;;;20.16;51.82;101087.47;5096117;27;45344;-49
2022/08/28 05:35:18;;;;;;;;;6.60;6.60;;;;;20.21;51.74;101081.94;5095694;27;45403;-50
2022/08/28 05:37:44;;;;;;;;;6.00;6.00;;;;;20.21;51.90;101086.69;5096134;27;45255;-51
2022/08/28 05:40:09;;;;;;;;;6.00;6.00;;;;;20.20;51.76;101082.19;5096242;27;46734;-52
2022/08/28 05:42:36;;;;;;;;;8.25;5.50;;;;;20.16;52.06;101091.09;5066458;27;45892;-52
2022/08/28 05:45:02;;;;;;;;;5.40;5.40;;;;;20.17;52.17;101087.19;5065322;27;45440;-51
2022/08/28 05:47:31;;;;;;;;;6.00;6.00;;;;;20.21;52.13;101090.28;5084353;27;45611;-53
2022/08/28 05:49:57;;;;;;;;;6.40;6.40;;;;;20.15;52.34;101080.22;5092473;27;46240;-52
2022/08/28 05:52:23;;;;;;;;;6.40;5.60;;;;;20.02;51.84;101062.84;5073804;27;45506;-53
2022/08/28 05:54:48;;;;;;;;;7.75;7.00;;;;;20.18;52.01;101080.50;5095678;27;45374;-51
2022/08/28 05:57:14;;;;;;;;;7.50;7.50;;;;;20.26;52.04;101090.31;5068486;27;45924;-50
2022/08/28 05:59:39;;;;;;;;;9.25;6.00;;;;;20.21;52.27;101089.47;5097101;27;45856;-52
2022/08/28 06:02:05;;;;;;;;;5.25;5.25;;;;;20.16;52.31;101091.09;5111546;27;45500;-50
2022/08/28 06:04:30;;;;;;;;;10.25;7.00;;;;;20.20;52.43;101090.56;5093385;27;45446;-49
2022/08/28 06:06:57;;;;;;;;;7.50;6.75;;;;;20.20;52.39;101090.56;5094309;27;45535;-50
2022/08/28 06:09:24;;;;;;;;;5.80;5.80;;;;;20.12;52.83;101089.94;5093490;27;45742;-49
2022/08/28 06:11:51;;;;;;;;;7.80;5.60;;;;;20.01;52.88;101093.78;5092289;27;45745;-49
2022/08/28 06:14:19;;;;;;;;;8.60;7.80;;;;;19.87;53.03;101066.38;5093867;27;45815;-48
2022/08/28 06:16:49;;;;;;;;;9.80;6.40;;;;;20.12;52.67;101095.53;5093242;27;45401;-49
2022/08/28 06:19:15;;;;;;;;;8.20;7.40;;;;;20.04;52.90;101098.81;5093789;27;46011;-50
2022/08/28 06:21:41;;;;;;;;;7.40;6.60;;;;;19.86;53.20;101067.44;5093294;27;45899;-54
2022/08/28 06:24:07;;;;;;;;;8.75;7.25;;;;;20.02;53.26;101096.28;5076484;27;45583;-53
2022/08/28 06:26:33;;;;;;;;;7.80;7.80;;;;;20.10;52.89;101092.16;5084213;27;45602;-49
2022/08/28 06:29:08;;;;;;;;;6.00;5.00;;;;;20.15;52.75;101095.00;5109355;27;45832;-51
2022/08/28 06:31:33;;;;;;;;;7.60;7.60;;;;;20.21;52.50;101107.00;5078790;27;45364;-51
2022/08/28 06:33:59;;;;;;;;;6.00;5.50;;;;;20.20;52.78;101084.97;5097196;27;45374;-55
2022/08/28 06:36:26;;;;;;;;;7.75;6.50;;;;;20.07;52.68;101081.56;5054343;27;45675;-54
2022/08/28 06:38:54;;;;;;;;;8.60;8.60;;;;;20.27;52.82;101093.97;5048809;27;46148;-50
2022/08/28 06:41:19;;;;;;;;;3.60;3.60;;;;;20.17;53.22;101097.53;5104366;27;46215;-52
2022/08/28 06:43:45;;;;;;;;;7.75;6.75;;;;;20.15;52.95;101103.34;5093193;27;45411;-49
2022/08/28 06:46:10;;;;;;;;;9.00;7.25;;;;;20.07;52.87;101095.50;5102257;27;45732;-51
2022/08/28 06:48:36;;;;;;;;;6.50;6.50;;;;;20.15;53.17;101110.88;5093452;27;45514;-49
2022/08/28 06:51:04;;;;;;;;;5.50;5.50;;;;;20.08;53.15;101097.19;5094033;27;45388;-54
2022/08/28 06:53:30;;;;;;;;;7.60;5.80;;;;;20.07;53.27;101097.44;5075795;27;45523;-54
2022/08/28 06:55:57;;;;;;;;;6.00;6.00;;;;;20.17;53.34;101101.13;5094661;27;45459;-52
2022/08/28 06:58:22;;;;;;;;;8.20;8.00;;;;;19.67;53.16;101016.06;5094038;27;45573;-50
2022/08/28 07:00:49;;;;;;;;;9.00;6.00;;;;;20.07;52.92;101075.16;5095651;27;45437;-50
2022/08/28 07:03:14;;;;;;;;;5.80;5.20;;;;;20.33;52.85;101112.38;5093829;27;45415;-48
2022/08/28 07:05:40;;;;;;;;;8.25;7.25;;;;;20.22;52.56;101083.59;5094397;27;45569;-49
2022/08/28 07:08:05;;;;;;;;;6.00;6.00;;;;;20.35;52.88;101096.25;5093860;27;46441;-48
2022/08/28 07:10:31;;;;;;;;;7.50;6.25;;;;;20.34;52.87;101094.56;5093951;27;45381;-48
2022/08/28 07:12:59;;;;;;;;;7.25;7.25;;;;;20.11;52.56;101060.41;5093478;27;45373;-50
2022/08/28 07:15:25;;;;;;;;;11.00;9.00;;;;;20.41;52.79;101109.09;5094366;27;45580;-51
2022/08/28 07:17:50;;;;;;;;;7.60;6.60;;;;;20.43;52.84;101106.03;5094183;27;46322;-54
2022/08/28 07:20:16;;;;;;;;;6.00;6.00;;;;;20.45;52.83;101112.19;5075779;27;45561;-53
2022/08/28 07:22:42;;;;;;;;;7.00;7.00;;;;;20.52;52.65;101118.34;5093417;27;45477;-55
2022/08/28 07:25:08;;;;;;;;;6.25;6.00;;;;;20.34;52.84;101094.56;5091594;27;45467;-53
2022/08/28 07:27:34;;;;;;;;;6.00;6.00;;;;;20.55;52.84;101125.34;5058682;27;47492;-54
2022/08/28 07:30:00;;;;;;;;;7.00;7.00;;;;;20.50;52.31;101120.59;5093713;27;45376;-54
2022/08/28 07:32:26;;;;;;;;;6.00;6.00;;;;;20.38;53.05;101090.09;5057983;27;45476;-57
2022/08/28 07:34:52;;;;;;;;;10.00;8.25;;;;;20.53;52.59;101117.25;5075714;27;45315;-56
2022/08/28 07:37:18;;;;;;;;;6.60;6.60;;;;;20.49;52.76;101113.31;5102799;27;46879;-53
2022/08/28 07:39:43;;;;;;;;;12.25;9.50;;;;;20.49;52.75;101118.06;5073667;27;45403;-50
2022/08/28 07:42:09;;;;;;;;;8.25;6.25;;;;;20.29;53.27;101100.09;5073358;27;45484;-53
2022/08/28 07:44:49;;;;;;;;;11.50;7.50;;;;;20.37;53.23;101116.31;5075721;27;46008;-55
2022/08/28 07:47:16;;;;;;;;;9.80;7.80;;;;;20.07;53.22;101052.88;5098972;27;46500;-54
2022/08/28 07:49:42;;;;;;;;;6.20;5.80;;;;;20.39;52.52;101085.38;5085082;27;45904;-53
2022/08/28 07:52:08;;;;;;;;;10.75;8.00;;;;;20.58;52.96;101108.91;5058028;27;45339;-54
2022/08/28 07:54:34;;;;;;;;;7.80;7.20;;;;;20.72;52.72;101131.53;5075256;27;45500;-51
2022/08/28 07:57:02;;;;;;;;;8.00;8.00;;;;;20.65;52.58;101128.16;5057949;27;47308;-52
2022/08/28 07:59:28;;;;;;;;;10.20;10.00;;;;;20.68;53.06;101136.00;5058313;27;45525;-52
2022/08/28 08:01:54;;;;;;;;;9.20;7.80;;;;;20.67;52.97;101125.97;5074295;27;45418;-54
2022/08/28 08:04:20;;;;;;;;;7.00;7.00;;;;;20.66;52.87;101124.25;5074733;27;45788;-55
2022/08/28 08:06:45;;;;;;;;;6.80;6.80;;;;;20.53;52.96;101096.88;5057982;27;46894;-54
2022/08/28 08:09:13;;;;;;;;;6.75;6.75;;;;;20.74;52.84;101114.56;5093526;27;45839;-53
2022/08/28 08:11:39;;;;;;;;;9.40;9.40;;;;;20.82;52.29;101113.19;5074765;27;45801;-54
2022/08/28 08:14:04;;;;;;;;;11.50;10.75;;;;;20.91;52.30;101125.53;5073351;27;45454;-55
2022/08/28 08:16:34;;;;;;;;;11.00;9.25;;;;;20.72;52.74;101111.19;5092474;27;45628;-51
2022/08/28 08:19:00;;;;;;;;;10.00;8.80;;;;;20.89;52.81;101124.97;5074638;27;45393;-51
2022/08/28 08:21:26;;;;;;;;;7.40;7.40;;;;;20.93;52.52;101123.34;5093126;27;45836;-54
2022/08/28 08:23:51;;;;;;;;;11.00;8.00;;;;;21.04;52.49;101126.13;5092854;27;45620;-57
2022/08/28 08:26:21;;;;;;;;;13.00;11.00;;;;;21.02;52.18;101117.22;5092489;27;45928;-54
2022/08/28 08:28:47;;;;;;;;;5.00;5.00;;;;;21.19;51.82;101133.72;5105303;27;45517;-50
2022/08/28 08:31:25;;;;;;;;;6.75;6.75;;;;;21.25;51.90;101136.25;5092815;27;45452;-53
2022/08/28 08:33:53;;;;;;;;;9.60;7.20;;;;;21.30;51.54;101134.59;5092857;27;45397;-52
2022/08/28 08:36:20;;;;;;;;;7.00;7.00;;;;;21.09;51.98;101099.09;5101786;27;45837;-53
2022/08/28 08:38:45;;;;;;;;;7.40;7.40;;;;;21.33;51.65;101128.44;5098459;27;45383;-53
2022/08/28 08:41:29;;;;;;;;;10.50;8.50;;;;;21.44;51.40;101138.53;5074339;27;45425;-54
2022/08/28 08:44:16;;;;;;;;;9.20;9.20;;;;;21.49;51.25;101141.34;5054717;27;45477;-52
2022/08/28 08:47:02;;;;;;;;;7.00;7.00;;;;;21.49;51.32;101135.75;5094344;27;46998;-53
2022/08/28 08:49:30;;;;;;;;;11.60;8.20;;;;;21.42;51.35;101132.41;5058290;27;45687;-57
2022/08/28 08:52:31;;;;;;;;;14.20;11.80;;;;;21.52;51.24;101137.16;5074493;27;45970;-56
2022/08/28 08:55:27;;;;;;;;;6.80;6.80;;;;;21.59;51.16;101117.31;5083986;27;45620;-52
2022/08/28 08:57:58;;;;;;;;;6.00;6.00;;;;;21.52;51.42;101098.88;5088796;27;46904;-52
2022/08/28 09:00:24;;;;;;;;;9.80;7.40;;;;;21.77;51.13;101116.81;5058224;27;45389;-53
2022/08/28 09:03:04;;;;;;;;;10.25;10.25;;;;;21.80;51.00;101121.84;5089773;27;45723;-57
2022/08/28 09:05:46;;;;;;;;;11.00;9.40;;;;;21.94;50.38;101126.88;5080778;27;45926;-50
2022/08/28 09:08:15;;;;;;;;;8.40;8.40;;;;;22.05;50.09;101122.13;5094957;27;45537;-58
2022/08/28 09:10:47;;;;;;;;;8.20;8.20;;;;;22.04;50.41;101126.88;5077158;27;45383;-55
2022/08/28 09:13:37;;;;;;;;;13.20;11.80;;;;;22.06;50.13;101126.59;5077025;27;45488;-53
2022/08/28 09:16:02;;;;;;;;;11.00;10.00;;;;;21.87;50.66;101093.63;5071247;27;45785;-52
2022/08/28 09:18:31;;;;;;;;;14.75;13.25;;;;;22.03;50.52;101121.53;5072958;27;45669;-53
2022/08/28 09:20:58;;;;;;;;;11.80;11.80;;;;;22.03;50.48;101104.78;5056320;27;45830;-49
2022/08/28 09:23:24;;;;;;;;;10.00;7.40;;;;;22.19;50.65;101113.97;5072120;27;45458;-57
2022/08/28 09:25:58;;;;;;;;;11.40;10.20;;;;;22.21;49.91;101108.97;5086521;27;45414;-50
2022/08/28 09:28:27;;;;;;;;;10.60;10.60;;;;;22.28;50.20;101123.50;5096874;27;46916;-52
2022/08/28 09:30:55;;;;;;;;;12.60;11.20;;;;;22.26;49.98;101114.56;5096050;27;45430;-50
2022/08/28 09:33:48;;;;;;;;;11.20;11.20;;;;;22.37;49.76;101120.13;5096095;27;45471;-57
2022/08/28 09:36:21;;;;;;;;;9.20;9.00;;;;;22.49;49.66;101115.06;5098001;27;45400;-59
2022/08/28 09:39:02;;;;;;;;;12.00;9.20;;;;;22.64;49.28;101127.34;5087806;27;45494;-56
2022/08/28 09:44:14;;;;;;;;;13.20;10.20;;;;;22.70;49.64;101109.41;5084797;27;45537;-57
2022/08/28 09:46:43;;;;;;;;;13.20;10.00;;;;;22.77;48.89;101107.16;5096997;27;45793;-49
2022/08/28 09:49:10;;;;;;;;;11.60;10.60;;;;;22.74;48.74;101083.38;5092854;27;46941;-54
2022/08/28 09:51:38;;;;;;;;;16.00;14.20;;;;;22.88;48.45;101086.41;5092811;27;45872;-55
2022/08/28 09:54:25;;;;;;;;;9.40;9.40;;;;;23.07;47.90;101099.75;5077937;27;45816;-56
2022/08/28 09:56:50;;;;;;;;;12.80;10.80;;;;;23.08;47.98;101101.41;5026931;27;46017;-57
2022/08/28 09:59:18;;;;;;;;;10.50;10.25;;;;;22.96;48.38;101075.72;5097038;27;47939;-56
2022/08/28 10:01:52;;;;;;;;;13.60;12.60;;;;;23.22;47.93;101100.78;5078499;27;45509;-55
2022/08/28 10:04:36;;;;;;;;;10.80;10.00;;;;;23.34;47.88;101098.50;5097017;27;45394;-57
2022/08/28 10:07:11;;;;;;;;;13.40;11.40;;;;;23.38;47.71;101107.16;5097514;27;45388;-54
2022/08/28 10:10:01;;;;;;;;;11.80;10.20;;;;;23.39;47.30;101095.66;5081133;27;45480;-53
2022/08/28 10:12:58;;;;;;;;;13.60;12.40;;;;;23.28;47.38;101069.66;5098675;27;45419;-50
2022/08/28 10:15:41;;;;;;;;;13.20;12.00;;;;;23.53;47.07;101093.03;5061040;27;45511;-52
2022/08/28 10:18:28;;;;;;;;;11.80;10.80;;;;;23.64;46.55;101090.97;5099214;27;45877;-52
2022/08/28 10:21:21;;;;;;;;;11.40;11.40;;;;;23.67;46.40;101097.97;5098599;27;45909;-55
2022/08/28 10:24:00;;;;;;;;;12.80;11.00;;;;;23.67;46.43;101101.63;5098576;27;45405;-51
2022/08/28 10:26:41;;;;;;;;;12.80;10.80;;;;;23.51;46.31;101063.63;5080547;27;45389;-53
2022/08/28 10:29:28;;;;;;;;;13.40;13.40;;;;;23.67;46.00;101065.19;5064368;27;45345;-54
2022/08/28 10:31:54;;;;;;;;;11.80;11.80;;;;;23.96;46.34;101098.00;5098479;27;45946;-54
2022/08/28 10:34:32;;;;;;;;;10.75;10.75;;;;;23.99;45.90;101081.72;5098451;27;45290;-49
2022/08/28 10:37:13;;;;;;;;;14.60;13.00;;;;;24.07;45.36;101084.75;5080997;27;45398;-53
2022/08/28 10:39:50;;;;;;;;;16.20;15.60;;;;;24.08;44.92;101094.81;5098731;27;45573;-55
2022/08/28 10:42:34;;;;;;;;;17.40;13.20;;;;;24.13;45.06;101084.69;5098553;27;45643;-56
2022/08/28 10:45:07;;;;;;;;;10.80;10.00;;;;;24.38;44.92;101094.81;5065850;27;45773;-57
2022/08/28 10:47:34;;;;;;;;;12.00;11.00;;;;;24.46;44.80;101082.09;5083710;27;45450;-55
2022/08/28 10:50:04;;;;;;;;;11.80;10.00;;;;;24.61;44.57;101086.69;5083730;27;45630;-55
2022/08/28 10:52:35;;;;;;;;;10.80;10.80;;;;;24.74;44.01;101091.59;5100879;27;45938;-56
2022/08/28 10:55:22;;;;;;;;;12.40;10.80;;;;;24.80;43.75;101085.91;5117513;27;45243;-54
2022/08/28 10:57:59;;;;;;;;;10.60;10.40;;;;;24.85;43.15;101083.91;5119383;27;45289;-54
2022/08/28 11:00:26;;;;;;;;;6.00;6.00;;;;;25.07;43.27;101101.31;5101320;27;45326;-52
2022/08/28 11:03:00;;;;;;;;;10.40;9.60;;;;;25.06;43.34;101086.41;5117475;27;46500;-54
2022/08/28 11:05:28;;;;;;;;;9.60;8.40;;;;;25.04;43.34;101069.88;5101082;27;45442;-53
2022/08/28 11:07:56;;;;;;;;;10.40;10.40;;;;;25.22;42.98;101089.00;5100456;27;45456;-51
2022/08/28 11:10:27;;;;;;;;;9.00;9.00;;;;;25.23;42.71;101090.69;5100541;27;45382;-54
2022/08/28 11:12:53;;;;;;;;;10.00;10.00;;;;;25.01;42.36;101028.38;5118523;27;46991;-53
2022/08/28 11:15:27;;;;;;;;;10.25;9.50;;;;;25.53;41.92;101080.13;5082891;27;45262;-52
2022/08/28 11:17:58;;;;;;;;;10.60;9.80;;;;;25.67;41.78;101085.81;5118584;27;45359;-56
2022/08/28 11:20:25;;;;;;;;;8.60;8.60;;;;;25.78;41.88;101076.03;5101259;27;45543;-52
2022/08/28 11:23:06;;;;;;;;;11.20;8.80;;;;;25.75;40.93;101082.28;5116971;27;45414;-50
2022/08/28 11:25:40;;;;;;;;;8.80;8.40;;;;;25.73;40.87;101053.66;5099873;27;45329;-51
2022/08/28 11:28:24;;;;;;;;;8.80;8.80;;;;;25.99;41.26;101072.91;5084286;27;45268;-54
2022/08/28 11:31:05;;;;;;;;;9.80;8.80;;;;;26.14;40.64;101079.38;5118560;27;45440;-53
2022/08/28 11:33:37;;;;;;;;;7.20;7.20;;;;;26.29;40.70;101081.91;5118392;27;45633;-52
2022/08/28 11:36:25;;;;;;;;;7.80;7.00;;;;;26.38;40.24;101073.59;5099914;27;45469;-50
2022/08/28 11:38:50;;;;;;;;;9.40;7.40;;;;;26.44;39.96;101079.94;5117124;27;45467;-54